Time;durP1;ratioP1;P1;durP2;ratioP2;P2;SDS_P1;SDS_P2;PMS_P1;PMS_P2;Temp;Humidity;BMP_temperature;BMP_pressure;BME280_temperature;BME280_humidity;BME280_pressure;Samples;Min_cycle;Max_cycle;Signal;HPM_P1;HPM_P2
2021/06/26 00:01:51;;;;;;;24.13;12.70;;;;;;;;;;5092534;28;20055;-83
2021/06/26 00:04:17;;;;;;;21.95;12.13;;;;;;;;;;5072588;28;20027;-84
2021/06/26 00:06:42;;;;;;;22.45;12.05;;;;;;;;;;5064490;28;20100;-82
2021/06/26 00:09:08;;;;;;;26.38;11.98;;;;;;;;;;5069601;28;20036;-81
2021/06/26 00:11:33;;;;;;;17.05;10.43;;;;;;;;;;5079382;28;20027;-82
2021/06/26 00:13:58;;;;;;;17.92;11.05;;;;;;;;;;5077942;28;20103;-81
2021/06/26 00:16:24;;;;;;;18.38;10.90;;;;;;;;;;5095018;28;20030;-81
2021/06/26 00:18:49;;;;;;;16.10;10.73;;;;;;;;;;5079585;28;20032;-82
2021/06/26 00:21:15;;;;;;;22.48;11.77;;;;;;;;;;5085453;28;20015;-82
2021/06/26 00:23:40;;;;;;;19.38;10.40;;;;;;;;;;5104384;28;20024;-82
2021/06/26 00:26:06;;;;;;;21.45;12.02;;;;;;;;;;5070068;28;20016;-81
2021/06/26 00:28:31;;;;;;;19.90;11.23;;;;;;;;;;5075929;28;20388;-82
2021/06/26 00:30:57;;;;;;;17.25;10.45;;;;;;;;;;5078949;28;20028;-83
2021/06/26 00:33:22;;;;;;;16.25;10.52;;;;;;;;;;5093132;28;20031;-82
2021/06/26 00:35:48;;;;;;;15.82;9.90;;;;;;;;;;5107735;28;20031;-81
2021/06/26 00:38:13;;;;;;;20.58;9.95;;;;;;;;;;5092312;28;20035;-81
2021/06/26 00:40:38;;;;;;;18.45;10.35;;;;;;;;;;5115852;28;20076;-81
2021/06/26 00:43:04;;;;;;;21.75;11.25;;;;;;;;;;5080180;28;20111;-81
2021/06/26 00:45:29;;;;;;;17.95;10.07;;;;;;;;;;5078425;28;20506;-82
2021/06/26 00:47:56;;;;;;;16.48;10.07;;;;;;;;;;5101289;28;20028;-82
2021/06/26 00:50:23;;;;;;;16.53;10.23;;;;;;;;;;5107031;28;20384;-82
2021/06/26 00:52:48;;;;;;;;;;;;;;;;;;5078050;28;20032;-81
2021/06/26 00:55:14;;;;;;;18.05;9.45;;;;;;;;;;5083315;28;20326;-81
2021/06/26 00:57:49;;;;;;;15.35;9.55;;;;;;;;;;5114969;28;20422;-81
2021/06/26 01:00:15;;;;;;;17.35;9.90;;;;;;;;;;5097111;28;20031;-82
2021/06/26 01:02:41;;;;;;;16.15;10.30;;;;;;;;;;5096090;28;20032;-82
2021/06/26 01:05:07;;;;;;;16.02;10.27;;;;;;;;;;5088957;28;20031;-82
2021/06/26 01:07:32;;;;;;;15.98;10.02;;;;;;;;;;5090118;28;20028;-82
2021/06/26 01:09:58;;;;;;;16.85;9.68;;;;;;;;;;5114931;28;20365;-82
2021/06/26 01:12:23;;;;;;;13.20;8.95;;;;;;;;;;5078103;28;20031;-81
2021/06/26 01:14:52;;;;;;;16.13;9.80;;;;;;;;;;5095787;28;20391;-81
2021/06/26 01:17:17;;;;;;;15.52;9.57;;;;;;;;;;5076831;28;20017;-81
2021/06/26 01:19:42;;;;;;;15.68;9.20;;;;;;;;;;5059845;28;20036;-81
2021/06/26 01:22:08;;;;;;;19.38;9.60;;;;;;;;;;5094812;28;20031;-81
2021/06/26 01:24:34;;;;;;;15.68;9.05;;;;;;;;;;5077592;28;20459;-80
2021/06/26 01:27:00;;;;;;;14.95;9.45;;;;;;;;;;5109372;28;20024;-82
2021/06/26 01:29:25;;;;;;;15.10;8.95;;;;;;;;;;5095214;28;20408;-81
2021/06/26 01:31:51;;;;;;;14.68;8.88;;;;;;;;;;5088832;28;20032;-81
2021/06/26 01:34:16;;;;;;;13.95;8.73;;;;;;;;;;5092488;28;20035;-80
2021/06/26 01:36:42;;;;;;;17.67;9.45;;;;;;;;;;5093965;28;20036;-81
2021/06/26 01:39:07;;;;;;;14.55;9.45;;;;;;;;;;5076072;28;20148;-81
2021/06/26 01:41:33;;;;;;;13.07;8.57;;;;;;;;;;5075796;28;20533;-81
2021/06/26 01:43:59;;;;;;;16.83;10.48;;;;;;;;;;5094182;28;20020;-82
2021/06/26 01:46:24;;;;;;;14.02;9.25;;;;;;;;;;5111880;28;20388;-85
2021/06/26 01:48:50;;;;;;;17.83;9.98;;;;;;;;;;5078305;28;20032;-81
2021/06/26 01:51:15;;;;;;;14.30;9.95;;;;;;;;;;5090302;28;20077;-80
2021/06/26 01:53:40;;;;;;;16.98;9.52;;;;;;;;;;5059221;28;20107;-80
2021/06/26 01:56:07;;;;;;;18.85;10.15;;;;;;;;;;5088512;28;20028;-83
2021/06/26 01:58:32;;;;;;;17.17;10.33;;;;;;;;;;5075433;28;20032;-81
2021/06/26 02:00:58;;;;;;;15.18;9.50;;;;;;;;;;5099804;28;20312;-82
2021/06/26 02:03:23;;;;;;;15.70;9.20;;;;;;;;;;5093951;28;20028;-81
2021/06/26 02:05:48;;;;;;;14.15;9.45;;;;;;;;;;5059731;28;20028;-81
2021/06/26 02:08:14;;;;;;;14.18;9.43;;;;;;;;;;5059109;28;20077;-82
2021/06/26 02:10:39;;;;;;;14.20;9.25;;;;;;;;;;5077214;28;20104;-81
2021/06/26 02:13:05;;;;;;;12.80;8.95;;;;;;;;;;5092827;28;20024;-82
2021/06/26 02:15:30;;;;;;;11.63;8.20;;;;;;;;;;5076466;28;20396;-82
2021/06/26 02:17:56;;;;;;;15.85;9.50;;;;;;;;;;5075818;28;20028;-82
2021/06/26 02:20:21;;;;;;;14.88;10.20;;;;;;;;;;5076897;28;20032;-84
2021/06/26 02:22:46;;;;;;;14.63;8.90;;;;;;;;;;5076935;28;20107;-83
2021/06/26 02:25:13;;;;;;;14.77;9.40;;;;;;;;;;5094278;28;20110;-82
2021/06/26 02:27:39;;;;;;;14.07;9.65;;;;;;;;;;5077671;28;20024;-82
2021/06/26 02:30:05;;;;;;;15.15;10.15;;;;;;;;;;5083035;28;20134;-82
2021/06/26 02:32:30;;;;;;;13.57;9.35;;;;;;;;;;5096672;28;20024;-82
2021/06/26 02:34:56;;;;;;;14.57;9.50;;;;;;;;;;5100842;28;20034;-82
2021/06/26 02:37:21;;;;;;;14.40;8.95;;;;;;;;;;5095274;28;20031;-82
2021/06/26 02:39:47;;;;;;;13.15;10.00;;;;;;;;;;5078547;28;20173;-82
2021/06/26 02:42:12;;;;;;;17.40;10.52;;;;;;;;;;5065855;28;20425;-82
2021/06/26 02:44:37;;;;;;;15.80;9.57;;;;;;;;;;5095858;28;20101;-82
2021/06/26 02:47:03;;;;;;;15.15;8.85;;;;;;;;;;5096482;28;20080;-82
2021/06/26 02:49:29;;;;;;;14.65;9.77;;;;;;;;;;5077086;28;20040;-82
2021/06/26 02:51:54;;;;;;;12.38;8.60;;;;;;;;;;5095101;28;20626;-82
2021/06/26 02:54:20;;;;;;;13.45;8.65;;;;;;;;;;5097685;28;20051;-82
2021/06/26 02:56:45;;;;;;;12.18;8.73;;;;;;;;;;5081915;28;20495;-81
2021/06/26 02:59:10;;;;;;;9.40;6.75;;;;;;;;;;5110308;28;20024;-81
2021/06/26 03:01:36;;;;;;;12.50;7.93;;;;;;;;;;5089378;28;20027;-83
2021/06/26 03:04:01;;;;;;;9.68;6.78;;;;;;;;;;5081844;28;20057;-81
2021/06/26 03:06:27;;;;;;;10.95;6.60;;;;;;;;;;5108304;28;20080;-81
2021/06/26 03:08:52;;;;;;;9.05;6.72;;;;;;;;;;5100123;28;20132;-81
2021/06/26 03:11:18;;;;;;;11.77;7.82;;;;;;;;;;5116481;28;20058;-81
2021/06/26 03:13:43;;;;;;;9.75;6.88;;;;;;;;;;5126406;28;20027;-81
2021/06/26 03:16:09;;;;;;;12.60;7.30;;;;;;;;;;5108751;28;20024;-80
2021/06/26 03:18:35;;;;;;;11.05;6.85;;;;;;;;;;5102760;28;20031;-81
2021/06/26 03:21:00;;;;;;;12.10;7.40;;;;;;;;;;5108438;28;20171;-81
2021/06/26 03:23:25;;;;;;;9.68;6.00;;;;;;;;;;5111228;28;20475;-84
2021/06/26 03:25:51;;;;;;;12.35;7.22;;;;;;;;;;5083003;28;20030;-82
2021/06/26 03:28:16;;;;;;;10.98;7.25;;;;;;;;;;5098975;28;20016;-83
2021/06/26 03:30:43;;;;;;;11.70;8.13;;;;;;;;;;5110310;28;20028;-86
2021/06/26 03:33:09;;;;;;;13.10;7.70;;;;;;;;;;5098434;28;20019;-81
2021/06/26 03:35:34;;;;;;;11.02;7.55;;;;;;;;;;5086734;28;20392;-82
2021/06/26 03:37:59;;;;;;;15.15;8.90;;;;;;;;;;5073175;28;20156;-81
2021/06/26 03:40:25;;;;;;;12.10;7.45;;;;;;;;;;5098924;28;20090;-81
2021/06/26 03:42:50;;;;;;;12.52;8.02;;;;;;;;;;5096223;28;20024;-81
2021/06/26 03:45:16;;;;;;;10.35;6.57;;;;;;;;;;5093493;28;20062;-82
2021/06/26 03:47:41;;;;;;;11.27;7.00;;;;;;;;;;5071683;28;20027;-79
2021/06/26 03:50:07;;;;;;;10.85;6.55;;;;;;;;;;5102558;28;20038;-81
2021/06/26 03:52:33;;;;;;;7.85;5.82;;;;;;;;;;5096435;28;20028;-80
2021/06/26 03:54:58;;;;;;;11.13;6.88;;;;;;;;;;5076380;28;20027;-81
2021/06/26 03:57:24;;;;;;;9.27;6.80;;;;;;;;;;5077713;28;20035;-81
2021/06/26 03:59:49;;;;;;;10.40;7.10;;;;;;;;;;5078843;28;20028;-81
2021/06/26 04:02:15;;;;;;;9.85;6.90;;;;;;;;;;5069517;28;20035;-81
2021/06/26 04:04:40;;;;;;;8.77;6.97;;;;;;;;;;5062418;28;20081;-83
2021/06/26 04:07:05;;;;;;;10.68;6.53;;;;;;;;;;5061521;28;20024;-83
2021/06/26 04:09:31;;;;;;;10.40;7.13;;;;;;;;;;5077422;28;20024;-83
2021/06/26 04:11:56;;;;;;;9.32;6.47;;;;;;;;;;5074374;28;20012;-82
2021/06/26 04:14:22;;;;;;;9.35;6.47;;;;;;;;;;5107868;28;20023;-82
2021/06/26 04:16:47;;;;;;;8.85;6.72;;;;;;;;;;5072240;28;20124;-82
2021/06/26 04:19:14;;;;;;;10.20;6.88;;;;;;;;;;5097155;28;20028;-82
2021/06/26 04:21:40;;;;;;;12.07;6.20;;;;;;;;;;5087929;28;20023;-82
2021/06/26 04:24:05;;;;;;;10.52;6.38;;;;;;;;;;5090545;28;20016;-82
2021/06/26 04:26:30;;;;;;;11.10;6.55;;;;;;;;;;5086994;28;20038;-83
2021/06/26 04:28:56;;;;;;;11.20;6.75;;;;;;;;;;5079774;28;20038;-82
2021/06/26 04:31:21;;;;;;;8.75;6.20;;;;;;;;;;5097767;28;20032;-82
2021/06/26 04:33:47;;;;;;;8.90;6.18;;;;;;;;;;5088528;28;20388;-82
2021/06/26 04:36:14;;;;;;;11.32;7.13;;;;;;;;;;5099224;28;20051;-82
2021/06/26 04:38:39;;;;;;;10.50;7.30;;;;;;;;;;5081976;28;20191;-84
2021/06/26 04:41:05;;;;;;;10.15;6.78;;;;;;;;;;5068753;28;20032;-82
2021/06/26 04:43:30;;;;;;;13.65;7.95;;;;;;;;;;5086506;28;20051;-82
2021/06/26 04:45:56;;;;;;;9.65;7.20;;;;;;;;;;5088245;28;20086;-82
2021/06/26 04:48:21;;;;;;;8.50;6.55;;;;;;;;;;5066835;28;20032;-82
2021/06/26 04:50:47;;;;;;;14.10;8.63;;;;;;;;;;5069196;28;20450;-82
2021/06/26 04:53:12;;;;;;;13.75;9.57;;;;;;;;;;5091232;28;20036;-82
2021/06/26 04:55:38;;;;;;;14.63;9.55;;;;;;;;;;5067462;28;20059;-81
2021/06/26 04:58:03;;;;;;;19.27;11.13;;;;;;;;;;5076592;28;20089;-82
2021/06/26 05:00:29;;;;;;;19.77;11.60;;;;;;;;;;5080751;28;20064;-82
2021/06/26 05:02:54;;;;;;;18.67;11.40;;;;;;;;;;5077421;28;20487;-82
2021/06/26 05:05:20;;;;;;;21.35;11.80;;;;;;;;;;5079126;28;20430;-82
2021/06/26 05:07:45;;;;;;;22.30;12.25;;;;;;;;;;5079913;28;20027;-81
2021/06/26 05:10:11;;;;;;;22.35;11.50;;;;;;;;;;5107715;28;20373;-81
2021/06/26 05:12:36;;;;;;;18.50;11.68;;;;;;;;;;5113074;28;20024;-81
2021/06/26 05:15:02;;;;;;;20.70;12.57;;;;;;;;;;5063901;28;20035;-82
2021/06/26 05:17:28;;;;;;;20.00;11.93;;;;;;;;;;5064377;28;20032;-82
2021/06/26 05:19:53;;;;;;;22.33;12.00;;;;;;;;;;5088793;28;20034;-83
2021/06/26 05:22:19;;;;;;;21.50;12.43;;;;;;;;;;5094044;28;20031;-83
2021/06/26 05:24:44;;;;;;;21.80;13.25;;;;;;;;;;5078635;28;20468;-81
2021/06/26 05:27:11;;;;;;;17.92;10.88;;;;;;;;;;5096334;28;20023;-83
2021/06/26 05:29:42;;;;;;;17.02;10.30;;;;;;;;;;5087313;28;20028;-82
2021/06/26 05:32:09;;;;;;;15.75;10.00;;;;;;;;;;5060216;28;20116;-82
2021/06/26 05:34:34;;;;;;;14.32;9.48;;;;;;;;;;5079966;28;20453;-81
2021/06/26 05:37:00;;;;;;;17.83;10.00;;;;;;;;;;5111754;28;20049;-81
2021/06/26 05:39:25;;;;;;;20.35;10.48;;;;;;;;;;5123884;28;20047;-85
2021/06/26 05:41:51;;;;;;;18.50;9.98;;;;;;;;;;5077046;28;20026;-83
2021/06/26 05:44:18;;;;;;;18.58;10.52;;;;;;;;;;5091881;28;20028;-83
2021/06/26 05:46:43;;;;;;;19.40;11.35;;;;;;;;;;5082411;28;20081;-81
2021/06/26 05:49:08;;;;;;;30.00;12.60;;;;;;;;;;5105349;28;20027;-81
2021/06/26 05:51:34;;;;;;;21.85;11.80;;;;;;;;;;5116916;28;20066;-82
2021/06/26 05:54:01;;;;;;;22.05;11.63;;;;;;;;;;5070753;28;20016;-83
2021/06/26 05:56:27;;;;;;;24.02;12.10;;;;;;;;;;5078347;28;20032;-82
2021/06/26 05:58:52;;;;;;;20.58;11.63;;;;;;;;;;5101682;28;20020;-83
2021/06/26 06:01:18;;;;;;;20.52;11.73;;;;;;;;;;5091564;28;20020;-81
2021/06/26 06:03:46;;;;;;;23.33;13.27;;;;;;;;;;5080325;28;20036;-82
2021/06/26 06:06:11;;;;;;;25.73;12.27;;;;;;;;;;5076834;28;20023;-82
2021/06/26 06:08:40;;;;;;;23.92;12.70;;;;;;;;;;5089137;28;20420;-80
2021/06/26 06:11:05;;;;;;;25.70;13.60;;;;;;;;;;5074626;28;20062;-81
2021/06/26 06:13:34;;;;;;;22.67;11.73;;;;;;;;;;5087031;28;20792;-83
2021/06/26 06:16:00;;;;;;;12.95;7.75;;;;;;;;;;5057397;28;20031;-82
2021/06/26 06:18:25;;;;;;;14.37;7.63;;;;;;;;;;5051965;28;20834;-81
2021/06/26 06:20:53;;;;;;;16.38;8.63;;;;;;;;;;5070465;28;20276;-82
2021/06/26 06:23:19;;;;;;;14.25;8.18;;;;;;;;;;5062666;28;20016;-82
2021/06/26 06:25:45;;;;;;;15.30;8.63;;;;;;;;;;5046153;28;20442;-82
2021/06/26 06:28:10;;;;;;;13.85;8.30;;;;;;;;;;5078508;28;20087;-82
2021/06/26 06:30:37;;;;;;;19.45;9.30;;;;;;;;;;5086333;28;20030;-82
2021/06/26 06:33:05;;;;;;;16.77;9.87;;;;;;;;;;5075510;28;20020;-82
2021/06/26 06:35:32;;;;;;;18.48;9.85;;;;;;;;;;5070838;28;20032;-82
2021/06/26 06:37:58;;;;;;;17.42;9.68;;;;;;;;;;5045365;28;20126;-80
2021/06/26 06:40:23;;;;;;;22.63;10.60;;;;;;;;;;5045330;28;20024;-82
2021/06/26 06:42:48;;;;;;;18.83;9.88;;;;;;;;;;5024018;28;20111;-79
2021/06/26 06:45:14;;;;;;;22.77;12.00;;;;;;;;;;5067939;28;20384;-81
2021/06/26 06:47:40;;;;;;;23.98;11.50;;;;;;;;;;5088560;28;20024;-81
2021/06/26 06:50:09;;;;;;;21.73;11.07;;;;;;;;;;5076631;28;20127;-83
2021/06/26 06:52:35;;;;;;;14.35;8.13;;;;;;;;;;5106552;28;20074;-80
2021/06/26 06:55:05;;;;;;;15.60;9.05;;;;;;;;;;5090417;28;21181;-82
2021/06/26 06:57:31;;;;;;;15.93;8.60;;;;;;;;;;5078001;28;20028;-83
2021/06/26 06:59:56;;;;;;;15.43;8.30;;;;;;;;;;5080343;28;20131;-86
2021/06/26 07:02:22;;;;;;;21.30;9.23;;;;;;;;;;5079688;28;20024;-83
2021/06/26 07:04:48;;;;;;;18.95;9.52;;;;;;;;;;5092177;28;20109;-82
2021/06/26 07:07:14;;;;;;;22.60;10.52;;;;;;;;;;5073295;28;20040;-83
2021/06/26 07:09:42;;;;;;;20.88;10.35;;;;;;;;;;5054545;28;20108;-83
2021/06/26 07:12:09;;;;;;;20.23;10.05;;;;;;;;;;5096094;28;20402;-83
2021/06/26 07:14:35;;;;;;;17.52;10.85;;;;;;;;;;5070403;28;20036;-82
2021/06/26 07:17:00;;;;;;;28.58;12.85;;;;;;;;;;5081633;28;20427;-83
2021/06/26 07:19:25;;;;;;;22.38;11.60;;;;;;;;;;5088933;28;20090;-83
2021/06/26 07:21:52;;;;;;;22.52;11.95;;;;;;;;;;5100910;28;20483;-84
2021/06/26 07:24:18;;;;;;;26.42;12.85;;;;;;;;;;5116924;28;20022;-81
2021/06/26 07:26:44;;;;;;;22.30;12.13;;;;;;;;;;5110547;28;20036;-82
2021/06/26 07:29:09;;;;;;;21.90;11.75;;;;;;;;;;5080978;28;20439;-83
2021/06/26 07:31:35;;;;;;;22.75;12.23;;;;;;;;;;5057072;28;20098;-83
2021/06/26 07:34:00;;;;;;;22.55;12.30;;;;;;;;;;5047625;28;20400;-87
2021/06/26 07:36:26;;;;;;;21.27;11.82;;;;;;;;;;5066535;28;20088;-86
2021/06/26 07:38:51;;;;;;;30.15;13.60;;;;;;;;;;5055439;28;20035;-86
2021/06/26 07:41:17;;;;;;;30.45;16.23;;;;;;;;;;5085313;28;20110;-85
2021/06/26 07:43:45;;;;;;;35.55;19.75;;;;;;;;;;5060821;28;20154;-83
2021/06/26 07:46:11;;;;;;;34.92;22.35;;;;;;;;;;5081291;28;20036;-85
2021/06/26 07:48:36;;;;;;;40.13;23.00;;;;;;;;;;5047513;28;20353;-84
2021/06/26 07:51:04;;;;;;;39.55;22.17;;;;;;;;;;5080004;28;20028;-85
2021/06/26 07:53:29;;;;;;;37.20;22.17;;;;;;;;;;5045929;28;20093;-85
2021/06/26 07:55:55;;;;;;;34.28;20.67;;;;;;;;;;5085608;28;20511;-85
2021/06/26 07:58:25;;;;;;;39.20;22.00;;;;;;;;;;5080960;28;20074;-83
2021/06/26 08:00:51;;;;;;;34.67;20.58;;;;;;;;;;5076758;28;20027;-84
2021/06/26 08:03:18;;;;;;;41.88;24.00;;;;;;;;;;5055560;28;20032;-85
2021/06/26 08:05:44;;;;;;;34.10;21.23;;;;;;;;;;5072686;28;20100;-84
2021/06/26 08:08:09;;;;;;;35.40;22.10;;;;;;;;;;5073984;28;20091;-84
2021/06/26 08:10:35;;;;;;;40.30;24.45;;;;;;;;;;5063365;28;20077;-83
2021/06/26 08:13:00;;;;;;;39.90;24.48;;;;;;;;;;5085231;28;20074;-85
2021/06/26 08:15:26;;;;;;;40.17;24.98;;;;;;;;;;5061931;28;20034;-85
2021/06/26 08:17:51;;;;;;;35.35;21.90;;;;;;;;;;5085994;28;20036;-86
2021/06/26 08:20:19;;;;;;;40.63;23.08;;;;;;;;;;5074480;28;20020;-87
2021/06/26 08:22:44;;;;;;;37.47;23.58;;;;;;;;;;5067726;28;20032;-80
2021/06/26 08:25:10;;;;;;;39.28;24.30;;;;;;;;;;5095556;28;20030;-77
2021/06/26 08:27:36;;;;;;;35.90;21.65;;;;;;;;;;5100703;28;20103;-87
2021/06/26 08:30:01;;;;;;;31.25;22.08;;;;;;;;;;5063608;28;20039;-80
2021/06/26 08:32:26;;;;;;;36.92;23.63;;;;;;;;;;5102896;28;20036;-84
2021/06/26 08:34:52;;;;;;;41.58;24.85;;;;;;;;;;5114605;28;20053;-83
2021/06/26 08:37:18;;;;;;;32.92;22.02;;;;;;;;;;5098990;28;20032;-77
2021/06/26 08:39:44;;;;;;;35.88;22.08;;;;;;;;;;5116382;28;20024;-80
2021/06/26 08:42:09;;;;;;;34.50;21.90;;;;;;;;;;5123438;28;20083;-78
2021/06/26 08:44:35;;;;;;;31.65;19.63;;;;;;;;;;5101985;28;20024;-77
2021/06/26 08:47:00;;;;;;;30.75;20.38;;;;;;;;;;5087427;28;20027;-77
2021/06/26 08:49:26;;;;;;;34.08;22.67;;;;;;;;;;5086394;28;20047;-76
2021/06/26 08:51:54;;;;;;;35.03;22.48;;;;;;;;;;5093209;28;20027;-77
2021/06/26 08:54:19;;;;;;;37.20;22.30;;;;;;;;;;5089564;28;20085;-77
2021/06/26 08:56:55;;;;;;;37.42;23.30;;;;;;;;;;5117453;28;20024;-77
